sensor_id;sensor_type;location;lat;lon;timestamp;P1;durP1;ratioP1;P2;durP2;ratioP2
6547;SDS011;3307;52.416;16.862;2023-05-10T00:01:20;7.70;;;3.90;;
6547;SDS011;3307;52.416;16.862;2023-05-10T00:03:45;5.47;;;4.13;;
6547;SDS011;3307;52.416;16.862;2023-05-10T00:06:10;3.83;;;3.33;;
6547;SDS011;3307;52.416;16.862;2023-05-10T00:08:36;7.40;;;4.37;;
6547;SDS011;3307;52.416;16.862;2023-05-10T00:11:01;7.23;;;4.30;;
6547;SDS011;3307;52.416;16.862;2023-05-10T00:13:26;3.97;;;3.53;;
6547;SDS011;3307;52.416;16.862;2023-05-10T00:15:52;5.00;;;3.80;;
6547;SDS011;3307;52.416;16.862;2023-05-10T00:18:17;6.13;;;4.00;;
6547;SDS011;3307;52.416;16.862;2023-05-10T00:20:43;5.23;;;3.93;;
6547;SDS011;3307;52.416;16.862;2023-05-10T00:23:10;5.75;;;3.80;;
6547;SDS011;3307;52.416;16.862;2023-05-10T00:25:36;3.77;;;3.47;;
6547;SDS011;3307;52.416;16.862;2023-05-10T00:28:01;5.10;;;3.40;;
6547;SDS011;3307;52.416;16.862;2023-05-10T00:30:27;4.83;;;3.20;;
6547;SDS011;3307;52.416;16.862;2023-05-10T00:32:52;4.47;;;3.87;;
6547;SDS011;3307;52.416;16.862;2023-05-10T00:35:18;4.37;;;3.30;;
6547;SDS011;3307;52.416;16.862;2023-05-10T00:37:43;5.32;;;3.55;;
6547;SDS011;3307;52.416;16.862;2023-05-10T00:40:10;5.78;;;3.28;;
6547;SDS011;3307;52.416;16.862;2023-05-10T00:42:36;4.47;;;2.97;;
6547;SDS011;3307;52.416;16.862;2023-05-10T00:45:01;6.10;;;3.93;;
6547;SDS011;3307;52.416;16.862;2023-05-10T00:47:27;6.53;;;4.43;;
6547;SDS011;3307;52.416;16.862;2023-05-10T00:49:53;5.90;;;3.50;;
6547;SDS011;3307;52.416;16.862;2023-05-10T00:52:18;8.00;;;3.80;;
6547;SDS011;3307;52.416;16.862;2023-05-10T00:54:44;4.53;;;3.60;;
6547;SDS011;3307;52.416;16.862;2023-05-10T00:57:09;7.83;;;3.80;;
6547;SDS011;3307;52.416;16.862;2023-05-10T00:59:35;4.67;;;2.83;;
6547;SDS011;3307;52.416;16.862;2023-05-10T01:02:01;7.13;;;3.40;;
6547;SDS011;3307;52.416;16.862;2023-05-10T01:04:26;4.20;;;3.43;;
6547;SDS011;3307;52.416;16.862;2023-05-10T01:06:52;5.10;;;3.53;;
6547;SDS011;3307;52.416;16.862;2023-05-10T01:09:19;4.53;;;3.08;;
6547;SDS011;3307;52.416;16.862;2023-05-10T01:11:45;5.65;;;3.42;;
6547;SDS011;3307;52.416;16.862;2023-05-10T01:14:11;5.67;;;3.17;;
6547;SDS011;3307;52.416;16.862;2023-05-10T01:16:37;5.03;;;3.42;;
6547;SDS011;3307;52.416;16.862;2023-05-10T01:19:26;4.35;;;3.35;;
6547;SDS011;3307;52.416;16.862;2023-05-10T01:33:09;4.70;;;2.70;;
6547;SDS011;3307;52.416;16.862;2023-05-10T01:41:07;4.95;;;3.97;;
6547;SDS011;3307;52.416;16.862;2023-05-10T01:44:24;4.22;;;2.80;;
6547;SDS011;3307;52.416;16.862;2023-05-10T01:46:35;5.30;;;3.20;;
6547;SDS011;3307;52.416;16.862;2023-05-10T01:49:02;5.78;;;3.28;;
6547;SDS011;3307;52.416;16.862;2023-05-10T01:51:31;2.88;;;2.50;;
6547;SDS011;3307;52.416;16.862;2023-05-10T01:54:04;5.75;;;3.70;;
6547;SDS011;3307;52.416;16.862;2023-05-10T01:56:30;4.82;;;4.20;;
6547;SDS011;3307;52.416;16.862;2023-05-10T01:58:57;6.20;;;3.88;;
6547;SDS011;3307;52.416;16.862;2023-05-10T02:01:24;4.80;;;3.50;;
6547;SDS011;3307;52.416;16.862;2023-05-10T02:03:51;6.75;;;3.17;;
6547;SDS011;3307;52.416;16.862;2023-05-10T02:06:18;4.10;;;3.07;;
6547;SDS011;3307;52.416;16.862;2023-05-10T02:08:43;4.90;;;3.92;;
6547;SDS011;3307;52.416;16.862;2023-05-10T02:11:12;6.72;;;4.15;;
6547;SDS011;3307;52.416;16.862;2023-05-10T02:13:38;7.53;;;4.25;;
6547;SDS011;3307;52.416;16.862;2023-05-10T02:16:04;9.23;;;3.90;;
6547;SDS011;3307;52.416;16.862;2023-05-10T02:18:30;6.75;;;4.20;;
6547;SDS011;3307;52.416;16.862;2023-05-10T02:20:56;6.43;;;4.05;;
6547;SDS011;3307;52.416;16.862;2023-05-10T02:23:23;4.85;;;3.70;;
6547;SDS011;3307;52.416;16.862;2023-05-10T02:25:48;5.80;;;4.30;;
6547;SDS011;3307;52.416;16.862;2023-05-10T02:28:14;9.53;;;3.60;;
6547;SDS011;3307;52.416;16.862;2023-05-10T02:30:40;5.20;;;3.53;;
6547;SDS011;3307;52.416;16.862;2023-05-10T02:33:06;5.00;;;3.30;;
6547;SDS011;3307;52.416;16.862;2023-05-10T02:35:32;7.00;;;3.40;;
6547;SDS011;3307;52.416;16.862;2023-05-10T02:37:58;8.13;;;3.90;;
6547;SDS011;3307;52.416;16.862;2023-05-10T02:40:24;5.53;;;3.70;;
6547;SDS011;3307;52.416;16.862;2023-05-10T02:42:52;5.78;;;3.85;;
6547;SDS011;3307;52.416;16.862;2023-05-10T02:45:20;6.13;;;4.13;;
6547;SDS011;3307;52.416;16.862;2023-05-10T02:47:48;6.90;;;3.80;;
6547;SDS011;3307;52.416;16.862;2023-05-10T02:50:14;4.10;;;3.73;;
6547;SDS011;3307;52.416;16.862;2023-05-10T02:52:41;4.93;;;3.33;;
6547;SDS011;3307;52.416;16.862;2023-05-10T02:55:11;7.35;;;3.92;;
6547;SDS011;3307;52.416;16.862;2023-05-10T02:57:39;4.70;;;3.42;;
6547;SDS011;3307;52.416;16.862;2023-05-10T03:00:07;5.18;;;3.50;;
6547;SDS011;3307;52.416;16.862;2023-05-10T03:02:33;6.65;;;3.90;;
6547;SDS011;3307;52.416;16.862;2023-05-10T03:04:59;6.00;;;3.07;;
6547;SDS011;3307;52.416;16.862;2023-05-10T03:07:24;7.43;;;4.10;;
6547;SDS011;3307;52.416;16.862;2023-05-10T03:09:49;4.63;;;4.00;;
6547;SDS011;3307;52.416;16.862;2023-05-10T03:17:32;5.03;;;3.80;;
6547;SDS011;3307;52.416;16.862;2023-05-10T03:20:03;6.05;;;3.80;;
6547;SDS011;3307;52.416;16.862;2023-05-10T03:22:40;4.45;;;3.63;;
6547;SDS011;3307;52.416;16.862;2023-05-10T03:25:11;4.68;;;3.85;;
6547;SDS011;3307;52.416;16.862;2023-05-10T03:27:39;4.50;;;4.07;;
6547;SDS011;3307;52.416;16.862;2023-05-10T03:30:13;6.43;;;3.83;;
6547;SDS011;3307;52.416;16.862;2023-05-10T03:32:38;7.35;;;3.53;;
6547;SDS011;3307;52.416;16.862;2023-05-10T03:35:08;6.00;;;3.30;;
6547;SDS011;3307;52.416;16.862;2023-05-10T03:37:34;5.80;;;4.05;;
6547;SDS011;3307;52.416;16.862;2023-05-10T03:39:59;8.10;;;4.77;;
6547;SDS011;3307;52.416;16.862;2023-05-10T03:42:25;5.70;;;3.93;;
6547;SDS011;3307;52.416;16.862;2023-05-10T03:44:50;5.80;;;3.90;;
6547;SDS011;3307;52.416;16.862;2023-05-10T03:47:16;5.57;;;3.80;;
6547;SDS011;3307;52.416;16.862;2023-05-10T03:49:41;5.13;;;4.20;;
6547;SDS011;3307;52.416;16.862;2023-05-10T03:52:06;10.00;;;4.33;;
6547;SDS011;3307;52.416;16.862;2023-05-10T03:54:32;5.07;;;3.63;;
6547;SDS011;3307;52.416;16.862;2023-05-10T03:56:58;5.57;;;4.33;;
6547;SDS011;3307;52.416;16.862;2023-05-10T03:59:25;5.40;;;3.80;;
6547;SDS011;3307;52.416;16.862;2023-05-10T04:01:50;8.07;;;4.20;;
6547;SDS011;3307;52.416;16.862;2023-05-10T04:04:16;6.93;;;3.80;;
6547;SDS011;3307;52.416;16.862;2023-05-10T04:06:43;7.03;;;3.50;;
6547;SDS011;3307;52.416;16.862;2023-05-10T04:09:08;4.60;;;3.63;;
6547;SDS011;3307;52.416;16.862;2023-05-10T04:11:34;7.47;;;4.00;;
6547;SDS011;3307;52.416;16.862;2023-05-10T04:13:59;5.73;;;4.00;;
6547;SDS011;3307;52.416;16.862;2023-05-10T04:16:25;7.60;;;4.40;;
6547;SDS011;3307;52.416;16.862;2023-05-10T04:18:50;5.07;;;3.93;;
6547;SDS011;3307;52.416;16.862;2023-05-10T04:21:15;5.20;;;3.60;;
6547;SDS011;3307;52.416;16.862;2023-05-10T04:23:41;11.33;;;4.40;;
6547;SDS011;3307;52.416;16.862;2023-05-10T04:26:06;6.17;;;4.47;;
6547;SDS011;3307;52.416;16.862;2023-05-10T04:28:32;5.80;;;4.30;;
6547;SDS011;3307;52.416;16.862;2023-05-10T04:31:01;7.80;;;4.83;;
6547;SDS011;3307;52.416;16.862;2023-05-10T04:33:33;6.60;;;3.85;;
6547;SDS011;3307;52.416;16.862;2023-05-10T04:35:59;7.07;;;3.80;;
6547;SDS011;3307;52.416;16.862;2023-05-10T04:38:25;9.35;;;4.07;;
6547;SDS011;3307;52.416;16.862;2023-05-10T04:40:51;6.15;;;4.35;;
6547;SDS011;3307;52.416;16.862;2023-05-10T04:43:17;5.47;;;4.70;;
6547;SDS011;3307;52.416;16.862;2023-05-10T04:45:43;4.83;;;4.30;;
6547;SDS011;3307;52.416;16.862;2023-05-10T04:48:08;6.40;;;4.50;;
6547;SDS011;3307;52.416;16.862;2023-05-10T04:50:33;6.30;;;4.40;;
6547;SDS011;3307;52.416;16.862;2023-05-10T04:52:59;6.13;;;3.83;;
6547;SDS011;3307;52.416;16.862;2023-05-10T04:55:24;10.80;;;4.90;;
6547;SDS011;3307;52.416;16.862;2023-05-10T04:57:50;5.97;;;3.90;;
6547;SDS011;3307;52.416;16.862;2023-05-10T05:00:15;4.53;;;4.00;;
6547;SDS011;3307;52.416;16.862;2023-05-10T05:02:45;4.73;;;4.20;;
6547;SDS011;3307;52.416;16.862;2023-05-10T05:05:13;6.38;;;4.07;;
6547;SDS011;3307;52.416;16.862;2023-05-10T05:07:38;6.75;;;4.53;;
6547;SDS011;3307;52.416;16.862;2023-05-10T05:10:07;9.30;;;5.20;;
6547;SDS011;3307;52.416;16.862;2023-05-10T05:12:33;5.35;;;3.95;;
6547;SDS011;3307;52.416;16.862;2023-05-10T05:14:59;6.20;;;5.03;;
6547;SDS011;3307;52.416;16.862;2023-05-10T05:17:24;4.43;;;3.73;;
6547;SDS011;3307;52.416;16.862;2023-05-10T05:19:51;7.10;;;4.00;;
6547;SDS011;3307;52.416;16.862;2023-05-10T05:22:17;5.25;;;3.83;;
6547;SDS011;3307;52.416;16.862;2023-05-10T05:24:44;7.18;;;4.30;;
6547;SDS011;3307;52.416;16.862;2023-05-10T05:27:10;4.90;;;4.50;;
6547;SDS011;3307;52.416;16.862;2023-05-10T05:29:35;5.30;;;4.13;;
6547;SDS011;3307;52.416;16.862;2023-05-10T05:32:00;9.23;;;4.60;;
6547;SDS011;3307;52.416;16.862;2023-05-10T05:34:26;4.50;;;4.07;;
6547;SDS011;3307;52.416;16.862;2023-05-10T05:36:52;5.73;;;4.27;;
6547;SDS011;3307;52.416;16.862;2023-05-10T05:39:17;5.50;;;3.60;;
6547;SDS011;3307;52.416;16.862;2023-05-10T05:41:42;5.77;;;3.43;;
6547;SDS011;3307;52.416;16.862;2023-05-10T05:44:08;6.50;;;4.43;;
6547;SDS011;3307;52.416;16.862;2023-05-10T05:46:34;11.87;;;4.90;;
6547;SDS011;3307;52.416;16.862;2023-05-10T05:48:59;4.47;;;3.67;;
6547;SDS011;3307;52.416;16.862;2023-05-10T05:51:25;4.37;;;3.70;;
6547;SDS011;3307;52.416;16.862;2023-05-10T05:53:50;4.83;;;4.37;;
6547;SDS011;3307;52.416;16.862;2023-05-10T05:56:16;7.13;;;4.77;;
6547;SDS011;3307;52.416;16.862;2023-05-10T05:58:48;5.15;;;4.00;;
6547;SDS011;3307;52.416;16.862;2023-05-10T06:01:14;6.30;;;4.17;;
6547;SDS011;3307;52.416;16.862;2023-05-10T06:03:40;6.47;;;4.47;;
6547;SDS011;3307;52.416;16.862;2023-05-10T06:06:05;4.40;;;4.00;;
6547;SDS011;3307;52.416;16.862;2023-05-10T06:08:30;6.47;;;3.90;;
6547;SDS011;3307;52.416;16.862;2023-05-10T06:10:56;6.37;;;4.30;;
6547;SDS011;3307;52.416;16.862;2023-05-10T06:13:21;9.33;;;4.53;;
6547;SDS011;3307;52.416;16.862;2023-05-10T06:15:46;4.83;;;3.97;;
6547;SDS011;3307;52.416;16.862;2023-05-10T06:18:12;7.57;;;4.63;;
6547;SDS011;3307;52.416;16.862;2023-05-10T06:20:37;5.43;;;3.70;;
6547;SDS011;3307;52.416;16.862;2023-05-10T06:23:03;6.07;;;4.63;;
6547;SDS011;3307;52.416;16.862;2023-05-10T06:25:28;4.10;;;3.73;;
6547;SDS011;3307;52.416;16.862;2023-05-10T06:27:54;4.85;;;3.65;;
6547;SDS011;3307;52.416;16.862;2023-05-10T06:30:23;6.00;;;4.60;;
6547;SDS011;3307;52.416;16.862;2023-05-10T06:32:52;5.40;;;4.22;;
6547;SDS011;3307;52.416;16.862;2023-05-10T06:35:18;4.53;;;3.58;;
6547;SDS011;3307;52.416;16.862;2023-05-10T06:37:43;6.20;;;3.77;;
6547;SDS011;3307;52.416;16.862;2023-05-10T06:40:09;8.63;;;3.53;;
6547;SDS011;3307;52.416;16.862;2023-05-10T06:42:35;4.10;;;3.50;;
6547;SDS011;3307;52.416;16.862;2023-05-10T06:45:00;5.00;;;4.37;;
6547;SDS011;3307;52.416;16.862;2023-05-10T06:47:25;4.33;;;3.93;;
6547;SDS011;3307;52.416;16.862;2023-05-10T06:49:51;4.57;;;3.70;;
6547;SDS011;3307;52.416;16.862;2023-05-10T06:52:16;4.70;;;4.00;;
6547;SDS011;3307;52.416;16.862;2023-05-10T06:54:42;5.70;;;3.50;;
6547;SDS011;3307;52.416;16.862;2023-05-10T06:57:07;5.43;;;4.17;;
6547;SDS011;3307;52.416;16.862;2023-05-10T06:59:32;3.70;;;2.90;;
6547;SDS011;3307;52.416;16.862;2023-05-10T07:01:58;6.20;;;3.57;;
6547;SDS011;3307;52.416;16.862;2023-05-10T07:04:23;5.57;;;3.20;;
6547;SDS011;3307;52.416;16.862;2023-05-10T07:06:49;7.83;;;3.63;;
6547;SDS011;3307;52.416;16.862;2023-05-10T07:09:14;5.30;;;3.20;;
6547;SDS011;3307;52.416;16.862;2023-05-10T07:11:40;4.37;;;3.57;;
6547;SDS011;3307;52.416;16.862;2023-05-10T07:14:06;4.40;;;2.87;;
6547;SDS011;3307;52.416;16.862;2023-05-10T07:16:32;4.20;;;3.30;;
6547;SDS011;3307;52.416;16.862;2023-05-10T07:18:57;5.55;;;3.92;;
6547;SDS011;3307;52.416;16.862;2023-05-10T07:21:23;5.93;;;3.90;;
6547;SDS011;3307;52.416;16.862;2023-05-10T07:23:49;6.88;;;3.65;;
6547;SDS011;3307;52.416;16.862;2023-05-10T07:26:15;5.30;;;3.10;;
6547;SDS011;3307;52.416;16.862;2023-05-10T07:28:41;3.70;;;2.57;;
6547;SDS011;3307;52.416;16.862;2023-05-10T07:31:06;3.03;;;2.60;;
6547;SDS011;3307;52.416;16.862;2023-05-10T07:33:31;3.47;;;2.63;;
6547;SDS011;3307;52.416;16.862;2023-05-10T07:35:57;2.90;;;2.40;;
6547;SDS011;3307;52.416;16.862;2023-05-10T07:38:22;8.70;;;3.60;;
6547;SDS011;3307;52.416;16.862;2023-05-10T07:40:48;5.07;;;3.30;;
6547;SDS011;3307;52.416;16.862;2023-05-10T07:43:13;4.83;;;3.93;;
6547;SDS011;3307;52.416;16.862;2023-05-10T07:45:39;3.83;;;2.77;;
6547;SDS011;3307;52.416;16.862;2023-05-10T07:48:04;3.70;;;2.50;;
6547;SDS011;3307;52.416;16.862;2023-05-10T07:50:30;8.27;;;3.53;;
6547;SDS011;3307;52.416;16.862;2023-05-10T07:52:55;4.30;;;3.07;;
6547;SDS011;3307;52.416;16.862;2023-05-10T07:55:21;4.60;;;3.27;;
6547;SDS011;3307;52.416;16.862;2023-05-10T07:57:47;3.30;;;3.00;;
6547;SDS011;3307;52.416;16.862;2023-05-10T08:00:12;4.30;;;3.57;;
6547;SDS011;3307;52.416;16.862;2023-05-10T08:02:38;3.53;;;3.07;;
6547;SDS011;3307;52.416;16.862;2023-05-10T08:05:04;3.63;;;3.00;;
6547;SDS011;3307;52.416;16.862;2023-05-10T08:07:30;4.43;;;2.80;;
6547;SDS011;3307;52.416;16.862;2023-05-10T08:09:55;7.07;;;3.10;;
6547;SDS011;3307;52.416;16.862;2023-05-10T08:12:21;4.00;;;2.90;;
6547;SDS011;3307;52.416;16.862;2023-05-10T08:14:46;2.97;;;2.63;;
6547;SDS011;3307;52.416;16.862;2023-05-10T08:17:12;2.70;;;2.50;;
6547;SDS011;3307;52.416;16.862;2023-05-10T08:19:37;4.43;;;2.90;;
6547;SDS011;3307;52.416;16.862;2023-05-10T08:22:02;3.70;;;2.77;;
6547;SDS011;3307;52.416;16.862;2023-05-10T08:24:28;3.23;;;2.60;;
6547;SDS011;3307;52.416;16.862;2023-05-10T08:26:53;2.87;;;2.67;;
6547;SDS011;3307;52.416;16.862;2023-05-10T08:29:19;3.17;;;2.87;;
6547;SDS011;3307;52.416;16.862;2023-05-10T08:31:44;5.40;;;2.53;;
6547;SDS011;3307;52.416;16.862;2023-05-10T08:34:10;4.90;;;2.87;;
6547;SDS011;3307;52.416;16.862;2023-05-10T08:36:35;3.73;;;3.10;;
6547;SDS011;3307;52.416;16.862;2023-05-10T08:39:01;3.73;;;2.10;;
6547;SDS011;3307;52.416;16.862;2023-05-10T08:41:26;1.93;;;1.70;;
6547;SDS011;3307;52.416;16.862;2023-05-10T08:43:52;3.83;;;2.10;;
6547;SDS011;3307;52.416;16.862;2023-05-10T08:46:19;5.20;;;2.30;;
6547;SDS011;3307;52.416;16.862;2023-05-10T08:48:45;2.97;;;2.40;;
6547;SDS011;3307;52.416;16.862;2023-05-10T08:51:13;3.80;;;2.50;;
6547;SDS011;3307;52.416;16.862;2023-05-10T08:53:39;3.43;;;3.00;;
6547;SDS011;3307;52.416;16.862;2023-05-10T08:56:05;3.50;;;2.87;;
6547;SDS011;3307;52.416;16.862;2023-05-10T08:58:31;4.50;;;2.20;;
6547;SDS011;3307;52.416;16.862;2023-05-10T09:00:57;2.50;;;1.73;;
6547;SDS011;3307;52.416;16.862;2023-05-10T09:03:23;2.90;;;1.97;;
6547;SDS011;3307;52.416;16.862;2023-05-10T09:05:48;2.20;;;1.63;;
6547;SDS011;3307;52.416;16.862;2023-05-10T09:08:13;2.90;;;1.77;;
6547;SDS011;3307;52.416;16.862;2023-05-10T09:10:41;2.40;;;1.70;;
6547;SDS011;3307;52.416;16.862;2023-05-10T09:13:08;4.87;;;2.20;;
6547;SDS011;3307;52.416;16.862;2023-05-10T09:15:38;2.47;;;2.17;;
6547;SDS011;3307;52.416;16.862;2023-05-10T09:18:03;4.50;;;2.57;;
6547;SDS011;3307;52.416;16.862;2023-05-10T09:20:29;2.23;;;1.67;;
6547;SDS011;3307;52.416;16.862;2023-05-10T09:22:56;2.00;;;1.80;;
6547;SDS011;3307;52.416;16.862;2023-05-10T09:25:21;1.60;;;1.50;;
6547;SDS011;3307;52.416;16.862;2023-05-10T09:27:47;4.03;;;1.73;;
6547;SDS011;3307;52.416;16.862;2023-05-10T09:30:34;3.47;;;1.87;;
6547;SDS011;3307;52.416;16.862;2023-05-10T09:32:59;2.17;;;1.80;;
6547;SDS011;3307;52.416;16.862;2023-05-10T09:35:25;2.07;;;1.87;;
6547;SDS011;3307;52.416;16.862;2023-05-10T09:37:52;2.17;;;1.90;;
6547;SDS011;3307;52.416;16.862;2023-05-10T09:40:20;3.23;;;2.40;;
6547;SDS011;3307;52.416;16.862;2023-05-10T09:45:22;3.20;;;1.00;;
6547;SDS011;3307;52.416;16.862;2023-05-10T09:47:48;2.10;;;1.80;;
6547;SDS011;3307;52.416;16.862;2023-05-10T09:50:13;3.93;;;2.20;;
6547;SDS011;3307;52.416;16.862;2023-05-10T09:55:19;2.30;;;1.47;;
6547;SDS011;3307;52.416;16.862;2023-05-10T09:57:45;1.80;;;1.13;;
6547;SDS011;3307;52.416;16.862;2023-05-10T10:00:18;1.87;;;1.57;;
6547;SDS011;3307;52.416;16.862;2023-05-10T10:02:45;6.37;;;1.90;;
6547;SDS011;3307;52.416;16.862;2023-05-10T10:05:12;2.70;;;1.60;;
6547;SDS011;3307;52.416;16.862;2023-05-10T10:07:38;4.30;;;1.47;;
6547;SDS011;3307;52.416;16.862;2023-05-10T10:10:04;4.70;;;2.23;;
6547;SDS011;3307;52.416;16.862;2023-05-10T10:12:30;2.23;;;1.73;;
6547;SDS011;3307;52.416;16.862;2023-05-10T10:14:56;3.03;;;1.60;;
6547;SDS011;3307;52.416;16.862;2023-05-10T10:17:22;2.10;;;1.33;;
6547;SDS011;3307;52.416;16.862;2023-05-10T10:19:49;4.03;;;2.40;;
6547;SDS011;3307;52.416;16.862;2023-05-10T10:22:14;3.50;;;1.70;;
6547;SDS011;3307;52.416;16.862;2023-05-10T10:24:40;2.20;;;1.80;;
6547;SDS011;3307;52.416;16.862;2023-05-10T10:27:14;2.03;;;1.77;;
6547;SDS011;3307;52.416;16.862;2023-05-10T10:35:41;2.40;;;1.43;;
6547;SDS011;3307;52.416;16.862;2023-05-10T10:38:08;2.30;;;1.60;;
6547;SDS011;3307;52.416;16.862;2023-05-10T10:40:34;1.90;;;1.73;;
6547;SDS011;3307;52.416;16.862;2023-05-10T10:48:43;1.70;;;1.60;;
6547;SDS011;3307;52.416;16.862;2023-05-10T10:51:13;2.00;;;1.73;;
6547;SDS011;3307;52.416;16.862;2023-05-10T10:53:39;2.03;;;1.75;;
6547;SDS011;3307;52.416;16.862;2023-05-10T10:56:05;3.30;;;1.97;;
6547;SDS011;3307;52.416;16.862;2023-05-10T10:58:33;2.00;;;1.40;;
6547;SDS011;3307;52.416;16.862;2023-05-10T11:03:40;2.10;;;1.75;;
6547;SDS011;3307;52.416;16.862;2023-05-10T11:06:28;2.00;;;1.70;;
6547;SDS011;3307;52.416;16.862;2023-05-10T11:08:57;2.53;;;1.50;;
6547;SDS011;3307;52.416;16.862;2023-05-10T11:11:22;2.30;;;1.37;;
6547;SDS011;3307;52.416;16.862;2023-05-10T11:13:47;1.60;;;1.50;;
6547;SDS011;3307;52.416;16.862;2023-05-10T11:16:21;2.27;;;2.00;;
6547;SDS011;3307;52.416;16.862;2023-05-10T11:19:04;1.73;;;1.63;;
6547;SDS011;3307;52.416;16.862;2023-05-10T11:21:33;6.40;;;1.80;;
6547;SDS011;3307;52.416;16.862;2023-05-10T11:23:59;2.63;;;1.67;;
6547;SDS011;3307;52.416;16.862;2023-05-10T11:26:29;1.88;;;1.77;;
6547;SDS011;3307;52.416;16.862;2023-05-10T11:28:56;2.70;;;2.00;;
6547;SDS011;3307;52.416;16.862;2023-05-10T11:31:21;2.20;;;1.33;;
6547;SDS011;3307;52.416;16.862;2023-05-10T11:33:51;2.50;;;1.70;;
6547;SDS011;3307;52.416;16.862;2023-05-10T11:36:20;4.27;;;2.03;;
6547;SDS011;3307;52.416;16.862;2023-05-10T11:38:47;2.53;;;2.30;;
6547;SDS011;3307;52.416;16.862;2023-05-10T11:41:13;2.03;;;1.67;;
6547;SDS011;3307;52.416;16.862;2023-05-10T11:43:39;3.23;;;2.33;;
6547;SDS011;3307;52.416;16.862;2023-05-10T11:46:05;3.00;;;2.70;;
6547;SDS011;3307;52.416;16.862;2023-05-10T11:48:32;3.70;;;2.43;;
6547;SDS011;3307;52.416;16.862;2023-05-10T11:50:57;2.20;;;1.97;;
6547;SDS011;3307;52.416;16.862;2023-05-10T11:53:24;2.73;;;1.63;;
6547;SDS011;3307;52.416;16.862;2023-05-10T11:55:51;2.10;;;1.90;;
6547;SDS011;3307;52.416;16.862;2023-05-10T11:58:17;2.43;;;2.20;;
6547;SDS011;3307;52.416;16.862;2023-05-10T12:00:43;3.30;;;1.97;;
6547;SDS011;3307;52.416;16.862;2023-05-10T12:03:09;3.30;;;2.40;;
6547;SDS011;3307;52.416;16.862;2023-05-10T12:05:35;2.00;;;1.80;;
6547;SDS011;3307;52.416;16.862;2023-05-10T12:08:11;3.83;;;1.77;;
6547;SDS011;3307;52.416;16.862;2023-05-10T12:10:40;2.03;;;1.80;;
6547;SDS011;3307;52.416;16.862;2023-05-10T12:13:09;6.80;;;5.50;;
6547;SDS011;3307;52.416;16.862;2023-05-10T12:15:36;2.43;;;2.10;;
6547;SDS011;3307;52.416;16.862;2023-05-10T12:18:01;2.53;;;1.63;;
6547;SDS011;3307;52.416;16.862;2023-05-10T12:20:27;2.00;;;1.63;;
6547;SDS011;3307;52.416;16.862;2023-05-10T12:22:54;3.47;;;1.90;;
6547;SDS011;3307;52.416;16.862;2023-05-10T12:25:22;2.33;;;2.13;;
6547;SDS011;3307;52.416;16.862;2023-05-10T12:27:57;2.13;;;1.90;;
6547;SDS011;3307;52.416;16.862;2023-05-10T12:30:26;2.20;;;1.90;;
6547;SDS011;3307;52.416;16.862;2023-05-10T12:32:53;2.40;;;1.83;;
6547;SDS011;3307;52.416;16.862;2023-05-10T12:35:25;2.13;;;1.93;;
6547;SDS011;3307;52.416;16.862;2023-05-10T12:37:51;2.43;;;2.30;;
6547;SDS011;3307;52.416;16.862;2023-05-10T12:40:16;2.53;;;1.83;;
6547;SDS011;3307;52.416;16.862;2023-05-10T12:42:42;2.23;;;1.93;;
6547;SDS011;3307;52.416;16.862;2023-05-10T12:45:09;2.50;;;2.03;;
6547;SDS011;3307;52.416;16.862;2023-05-10T12:47:35;2.60;;;2.07;;
6547;SDS011;3307;52.416;16.862;2023-05-10T12:50:01;2.70;;;1.87;;
6547;SDS011;3307;52.416;16.862;2023-05-10T12:52:27;2.63;;;1.98;;
6547;SDS011;3307;52.416;16.862;2023-05-10T12:54:53;4.10;;;1.93;;
6547;SDS011;3307;52.416;16.862;2023-05-10T12:57:22;5.20;;;4.63;;
6547;SDS011;3307;52.416;16.862;2023-05-10T12:59:47;2.70;;;2.27;;
6547;SDS011;3307;52.416;16.862;2023-05-10T13:02:13;2.63;;;2.10;;
6547;SDS011;3307;52.416;16.862;2023-05-10T13:04:39;12.87;;;4.40;;
6547;SDS011;3307;52.416;16.862;2023-05-10T13:07:06;14.87;;;5.00;;
6547;SDS011;3307;52.416;16.862;2023-05-10T13:09:31;5.10;;;3.47;;
6547;SDS011;3307;52.416;16.862;2023-05-10T13:11:57;7.83;;;2.93;;
6547;SDS011;3307;52.416;16.862;2023-05-10T13:14:22;7.93;;;3.50;;
6547;SDS011;3307;52.416;16.862;2023-05-10T13:16:48;3.57;;;2.47;;
6547;SDS011;3307;52.416;16.862;2023-05-10T13:19:13;3.07;;;2.20;;
6547;SDS011;3307;52.416;16.862;2023-05-10T13:21:39;4.10;;;2.40;;
6547;SDS011;3307;52.416;16.862;2023-05-10T13:24:06;3.87;;;1.90;;
6547;SDS011;3307;52.416;16.862;2023-05-10T13:26:32;2.90;;;2.70;;
6547;SDS011;3307;52.416;16.862;2023-05-10T13:28:57;2.07;;;1.90;;
6547;SDS011;3307;52.416;16.862;2023-05-10T13:31:23;2.80;;;1.87;;
6547;SDS011;3307;52.416;16.862;2023-05-10T13:33:48;2.60;;;2.10;;
6547;SDS011;3307;52.416;16.862;2023-05-10T13:36:13;2.83;;;2.43;;
6547;SDS011;3307;52.416;16.862;2023-05-10T13:38:39;2.67;;;1.97;;
6547;SDS011;3307;52.416;16.862;2023-05-10T13:41:05;2.73;;;2.03;;
6547;SDS011;3307;52.416;16.862;2023-05-10T13:43:30;2.20;;;2.00;;
6547;SDS011;3307;52.416;16.862;2023-05-10T13:45:55;2.23;;;2.03;;
6547;SDS011;3307;52.416;16.862;2023-05-10T13:48:21;2.97;;;2.67;;
6547;SDS011;3307;52.416;16.862;2023-05-10T13:50:47;2.50;;;2.30;;
6547;SDS011;3307;52.416;16.862;2023-05-10T13:53:12;3.80;;;2.00;;
6547;SDS011;3307;52.416;16.862;2023-05-10T13:55:38;2.90;;;2.37;;
6547;SDS011;3307;52.416;16.862;2023-05-10T13:58:03;2.80;;;2.60;;
6547;SDS011;3307;52.416;16.862;2023-05-10T14:00:29;2.20;;;2.00;;
6547;SDS011;3307;52.416;16.862;2023-05-10T14:02:54;2.80;;;2.50;;
6547;SDS011;3307;52.416;16.862;2023-05-10T14:05:20;2.57;;;1.73;;
6547;SDS011;3307;52.416;16.862;2023-05-10T14:07:45;2.20;;;2.00;;
6547;SDS011;3307;52.416;16.862;2023-05-10T14:10:11;2.80;;;2.07;;
6547;SDS011;3307;52.416;16.862;2023-05-10T14:12:36;2.60;;;2.40;;
6547;SDS011;3307;52.416;16.862;2023-05-10T14:15:02;2.80;;;2.37;;
6547;SDS011;3307;52.416;16.862;2023-05-10T14:17:30;3.50;;;2.77;;
6547;SDS011;3307;52.416;16.862;2023-05-10T14:19:55;2.23;;;2.03;;
6547;SDS011;3307;52.416;16.862;2023-05-10T14:22:21;2.97;;;2.33;;
6547;SDS011;3307;52.416;16.862;2023-05-10T14:24:47;2.20;;;2.00;;
6547;SDS011;3307;52.416;16.862;2023-05-10T14:27:13;2.50;;;2.30;;
6547;SDS011;3307;52.416;16.862;2023-05-10T14:29:38;3.47;;;2.50;;
6547;SDS011;3307;52.416;16.862;2023-05-10T14:32:03;3.80;;;2.87;;
6547;SDS011;3307;52.416;16.862;2023-05-10T14:34:29;2.30;;;2.10;;
6547;SDS011;3307;52.416;16.862;2023-05-10T14:36:54;6.27;;;2.10;;
6547;SDS011;3307;52.416;16.862;2023-05-10T14:39:20;3.73;;;2.20;;
6547;SDS011;3307;52.416;16.862;2023-05-10T14:41:45;3.17;;;2.70;;
6547;SDS011;3307;52.416;16.862;2023-05-10T14:44:12;4.45;;;2.85;;
6547;SDS011;3307;52.416;16.862;2023-05-10T14:46:37;3.03;;;2.83;;
6547;SDS011;3307;52.416;16.862;2023-05-10T14:49:03;3.33;;;2.33;;
6547;SDS011;3307;52.416;16.862;2023-05-10T14:51:29;4.60;;;2.80;;
6547;SDS011;3307;52.416;16.862;2023-05-10T14:53:54;2.77;;;2.57;;
6547;SDS011;3307;52.416;16.862;2023-05-10T14:56:20;2.47;;;2.10;;
6547;SDS011;3307;52.416;16.862;2023-05-10T14:58:46;2.30;;;2.10;;
6547;SDS011;3307;52.416;16.862;2023-05-10T15:01:11;3.20;;;2.90;;
6547;SDS011;3307;52.416;16.862;2023-05-10T15:03:37;2.30;;;2.10;;
6547;SDS011;3307;52.416;16.862;2023-05-10T15:06:03;3.27;;;2.93;;
6547;SDS011;3307;52.416;16.862;2023-05-10T15:08:28;2.53;;;2.23;;
6547;SDS011;3307;52.416;16.862;2023-05-10T15:10:54;3.60;;;2.77;;
6547;SDS011;3307;52.416;16.862;2023-05-10T15:13:21;3.67;;;2.70;;
6547;SDS011;3307;52.416;16.862;2023-05-10T15:15:46;2.80;;;2.60;;
6547;SDS011;3307;52.416;16.862;2023-05-10T15:18:12;3.33;;;2.77;;
6547;SDS011;3307;52.416;16.862;2023-05-10T15:20:37;3.13;;;2.47;;
6547;SDS011;3307;52.416;16.862;2023-05-10T15:23:02;2.50;;;2.30;;
6547;SDS011;3307;52.416;16.862;2023-05-10T15:25:28;2.80;;;2.33;;
6547;SDS011;3307;52.416;16.862;2023-05-10T15:27:54;3.17;;;2.90;;
6547;SDS011;3307;52.416;16.862;2023-05-10T15:30:19;2.77;;;2.57;;
6547;SDS011;3307;52.416;16.862;2023-05-10T15:32:45;3.37;;;2.30;;
6547;SDS011;3307;52.416;16.862;2023-05-10T15:35:10;3.63;;;2.80;;
6547;SDS011;3307;52.416;16.862;2023-05-10T15:37:36;4.00;;;3.60;;